Main page
Satellite images 15-day forecastsClimateMarine weather Cyclones Lightning AirportsFAQ Newsletter About
Weather : Europe Africa North America South America Asia Australia-Oceania Others
Languages Contact

Cologne, Germany

Flughafen Köln/Bonn

latitude: 50-52N, longitude: 007-10E, elevation: 91 m


METAR: EDDK 231320Z 19005KT 9999 SCT060TCU 20/08 Q1018 NOSIG
short-TAF: out of date (47892 hours)
long-TAF: EDDK 231100Z 2312/2418 VRB03KT 9999 FEW035 PROB30 TEMPO 2312/2319 4000 TSRA BKN030CB

Time: 15:46 (13:46 UTC)

Current weather observation

The report was made 26 minutes ago, at 13:20 UTC  
Wind 05 kt from south
Temperature 20°C
Humidity 46%
Pressure 1018 hPa
Visibility 10 km or more
Scattered clouds at a height of 6000 ft , Towering cumulus.

Change units

Forecast

The report was made 2 hours and 19 minutes ago, at 11:27 UTC  
Forecast valid from 23 at 12 UTC to 24 at 18 UTC
Wind 03 kt from variable directions
Visibility 10 km or more
Few clouds at a height of 3500 ft
Probability 30% :
Temporary
from 23 at 12 UTC to 23 at 19 UTC
Visibility 4000 m
Broken clouds at a height of 3000 ft , Cumulonimbus.
thunderstorm rain
The information on this site is subject to a disclaimer
Weather : Europe Africa North America South America Asia Australia-Oceania Others
Satellite images 15-day forecastsClimateMarine weather Cyclones Lightning AirportsFAQ Languages Contact Newsletter About